Terminal Aerodrome Forecast
Issued by NWS Cleveland, OH

Home | Current Version | Previous Version | Graphics & Text | Print | Product List | Glossary Off
Versions: 1 2 3 4 5 6 7 8 9 10 11 12 13 14 15 16

875
FTUS41 KCLE 080523
TAFERI
TAF
KERI 080523Z 0806/0906 22012G18KT P6SM BKN035
      TEMPO 0812/0816 5SM -SHSN BKN025 OVC050
     FM081600 25015G25KT P6SM VCSH OVC035
     FM081900 26016G30KT 5SM -SHSN OVC035
     FM082200 27015G25KT 2SM -SHSN OVC025
     FM090100 27014G22KT 1SM -SHSN OVC015=

USA.gov is the U.S. government's official web portal to all federal, state and local government web resources and services.